Arcadia, Oklahoma
Current Conditions -  °F | °C
As of 12:53 AM on Wednesday 28 Jan 2015 (Local Time) from KGOK Reporting Station
Clear Clear  
Wind Chill: 16°   Ceiling: Unl
Heat Index: 16°   Visibility: 10mi
Dew Point:   Wind: 8mph
Humidity: 44%   Direction: 200°SSW
Pressure: 30.02"   Gusts: NA
Location:  35.67°N, 97.33°W
Report Text: KGOK 280653Z AUTO 20007KT 10SM CLR 16/03 A3002 RMK AO2 SLP162 T01560033
Loading
Personal Weather Stations






























Interactive Weather Map New forecast layout! Learn more

10-Day Weather Forecast

Advertisements
Track Severe Weather on mobile